<?xml version="1.0" encoding="utf-8"?>
<gpx xmlns:xsi="http://www.w3.org/2001/XMLSchema-instance" xmlns:xsd="http://www.w3.org/2001/XMLSchema" version="1.1" creator="Shapelink.com" xmlns="http://www.topografix.com/GPX/1/1" xmlns:gpxtpx="http://www.garmin.com/xmlschemas/TrackPointExtension/v1">
  <metadata>
    <name>Löpning 5.32 km, 2019-09-21</name>
    <desc></desc>
    <author><name>Henrik Staffas</name></author> 
    <time>2019-09-21T10:58:19Z</time>
  </metadata>
  <trk>
    <name>Löpning 5.32 km, 2019-09-21</name>
    <trkseg>
      <trkpt lat="59.45093999259" lon="17.969505804884">
        <ele>25.2</ele>
        <time>2019-09-21T10:58:19Z</time>
      </trkpt>
      <trkpt lat="59.45090059766" lon="17.969539919217">
        <ele>25.8</ele>
        <time>2019-09-21T10:58:22Z</time>
      </trkpt>
      <trkpt lat="59.450869416992" lon="17.969593731015">
        <ele>26.4</ele>
        <time>2019-09-21T10:58:24Z</time>
      </trkpt>
      <trkpt lat="59.450850473898" lon="17.969643016587">
        <ele>26.6</ele>
        <time>2019-09-21T10:58:26Z</time>
      </trkpt>
      <trkpt lat="59.450813509719" lon="17.969782910498">
        <ele>27.8</ele>
        <time>2019-09-21T10:58:31Z</time>
      </trkpt>
      <trkpt lat="59.450786520001" lon="17.969884247669">
        <ele>29.4</ele>
        <time>2019-09-21T10:58:34Z</time>
      </trkpt>
      <trkpt lat="59.45076648726" lon="17.969937640372">
        <ele>30.4</ele>
        <time>2019-09-21T10:58:36Z</time>
      </trkpt>
      <trkpt lat="59.450736647696" lon="17.970077953378">
        <ele>31.8</ele>
        <time>2019-09-21T10:58:39Z</time>
      </trkpt>
      <trkpt lat="59.450685099011" lon="17.970315496424">
        <ele>32.8</ele>
        <time>2019-09-21T10:58:43Z</time>
      </trkpt>
      <trkpt lat="59.450626174254" lon="17.970530492159">
        <ele>33.4</ele>
        <time>2019-09-21T10:58:47Z</time>
      </trkpt>
      <trkpt lat="59.450595831776" lon="17.970619340299">
        <ele>33.4</ele>
        <time>2019-09-21T10:58:49Z</time>
      </trkpt>
      <trkpt lat="59.450528525119" lon="17.970818913338">
        <ele>33</ele>
        <time>2019-09-21T10:58:53Z</time>
      </trkpt>
      <trkpt lat="59.450489214008" lon="17.970890159488">
        <ele>32.6</ele>
        <time>2019-09-21T10:58:55Z</time>
      </trkpt>
      <trkpt lat="59.450350074468" lon="17.971147902913">
        <ele>32</ele>
        <time>2019-09-21T10:59:01Z</time>
      </trkpt>
      <trkpt lat="59.450332137202" lon="17.971190650603">
        <ele>31.8</ele>
        <time>2019-09-21T10:59:02Z</time>
      </trkpt>
      <trkpt lat="59.450207246892" lon="17.971461302154">
        <ele>31.6</ele>
        <time>2019-09-21T10:59:08Z</time>
      </trkpt>
      <trkpt lat="59.450111357956" lon="17.97180613352">
        <ele>32</ele>
        <time>2019-09-21T10:59:13Z</time>
      </trkpt>
      <trkpt lat="59.450091241396" lon="17.971883330819">
        <ele>32.2</ele>
        <time>2019-09-21T10:59:14Z</time>
      </trkpt>
      <trkpt lat="59.45004480567" lon="17.972106959911">
        <ele>33</ele>
        <time>2019-09-21T10:59:18Z</time>
      </trkpt>
      <trkpt lat="59.450018654142" lon="17.972269904047">
        <ele>33.4</ele>
        <time>2019-09-21T10:59:22Z</time>
      </trkpt>
      <trkpt lat="59.449995436279" lon="17.97234844245">
        <ele>33.4</ele>
        <time>2019-09-21T10:59:24Z</time>
      </trkpt>
      <trkpt lat="59.449917903704" lon="17.972691932712">
        <ele>33</ele>
        <time>2019-09-21T10:59:31Z</time>
      </trkpt>
      <trkpt lat="59.449905079397" lon="17.972804836905">
        <ele>32.8</ele>
        <time>2019-09-21T10:59:33Z</time>
      </trkpt>
      <trkpt lat="59.449833078876" lon="17.973160564741">
        <ele>32</ele>
        <time>2019-09-21T10:59:39Z</time>
      </trkpt>
      <trkpt lat="59.449809777194" lon="17.973254609659">
        <ele>31.8</ele>
        <time>2019-09-21T10:59:40Z</time>
      </trkpt>
      <trkpt lat="59.449777590698" lon="17.973482345882">
        <ele>31</ele>
        <time>2019-09-21T10:59:44Z</time>
      </trkpt>
      <trkpt lat="59.449766694228" lon="17.973539678078">
        <ele>30.8</ele>
        <time>2019-09-21T10:59:45Z</time>
      </trkpt>
      <trkpt lat="59.449767029504" lon="17.973684182034">
        <ele>30.6</ele>
        <time>2019-09-21T10:59:48Z</time>
      </trkpt>
      <trkpt lat="59.449761245993" lon="17.974038065852">
        <ele>30.2</ele>
        <time>2019-09-21T10:59:54Z</time>
      </trkpt>
      <trkpt lat="59.449758228509" lon="17.974280386581">
        <ele>29.6</ele>
        <time>2019-09-21T10:59:57Z</time>
      </trkpt>
      <trkpt lat="59.449768873522" lon="17.97460652631">
        <ele>29.4</ele>
        <time>2019-09-21T11:00:04Z</time>
      </trkpt>
      <trkpt lat="59.449711708964" lon="17.974955632445">
        <ele>28.8</ele>
        <time>2019-09-21T11:00:11Z</time>
      </trkpt>
      <trkpt lat="59.449677007898" lon="17.975068871914">
        <ele>28.6</ele>
        <time>2019-09-21T11:00:14Z</time>
      </trkpt>
      <trkpt lat="59.449641803918" lon="17.975193762224">
        <ele>28.4</ele>
        <time>2019-09-21T11:00:16Z</time>
      </trkpt>
      <trkpt lat="59.449605761748" lon="17.975449493993">
        <ele>27.8</ele>
        <time>2019-09-21T11:00:21Z</time>
      </trkpt>
      <trkpt lat="59.449604001549" lon="17.975515375727">
        <ele>27.4</ele>
        <time>2019-09-21T11:00:23Z</time>
      </trkpt>
      <trkpt lat="59.449636774778" lon="17.975872947581">
        <ele>27.2</ele>
        <time>2019-09-21T11:00:31Z</time>
      </trkpt>
      <trkpt lat="59.449613640734" lon="17.97616304514">
        <ele>27.6</ele>
        <time>2019-09-21T11:00:34Z</time>
      </trkpt>
      <trkpt lat="59.449640630452" lon="17.976319535213">
        <ele>28.2</ele>
        <time>2019-09-21T11:00:37Z</time>
      </trkpt>
      <trkpt lat="59.44967097293" lon="17.976687668261">
        <ele>27.4</ele>
        <time>2019-09-21T11:00:45Z</time>
      </trkpt>
      <trkpt lat="59.449694023155" lon="17.976845583257">
        <ele>27.2</ele>
        <time>2019-09-21T11:00:49Z</time>
      </trkpt>
      <trkpt lat="59.449636858597" lon="17.977266354637">
        <ele>26.8</ele>
        <time>2019-09-21T11:00:55Z</time>
      </trkpt>
      <trkpt lat="59.449627973783" lon="17.977370709292">
        <ele>26.6</ele>
        <time>2019-09-21T11:00:58Z</time>
      </trkpt>
      <trkpt lat="59.449565696266" lon="17.977739512892">
        <ele>27.2</ele>
        <time>2019-09-21T11:01:03Z</time>
      </trkpt>
      <trkpt lat="59.449482631637" lon="17.978082835516">
        <ele>28.2</ele>
        <time>2019-09-21T11:01:09Z</time>
      </trkpt>
      <trkpt lat="59.449467376579" lon="17.978142095549">
        <ele>28</ele>
        <time>2019-09-21T11:01:10Z</time>
      </trkpt>
      <trkpt lat="59.449327398849" lon="17.978382991355">
        <ele>26.6</ele>
        <time>2019-09-21T11:01:17Z</time>
      </trkpt>
      <trkpt lat="59.449303175158" lon="17.978407969417">
        <ele>26.4</ele>
        <time>2019-09-21T11:01:18Z</time>
      </trkpt>
      <trkpt lat="59.449106284327" lon="17.978590108104">
        <ele>25.4</ele>
        <time>2019-09-21T11:01:24Z</time>
      </trkpt>
      <trkpt lat="59.449080384256" lon="17.978614080338">
        <ele>25.2</ele>
        <time>2019-09-21T11:01:25Z</time>
      </trkpt>
      <trkpt lat="59.449052221072" lon="17.978635538002">
        <ele>25</ele>
        <time>2019-09-21T11:01:26Z</time>
      </trkpt>
      <trkpt lat="59.448946441494" lon="17.978726397798">
        <ele>24.2</ele>
        <time>2019-09-21T11:01:30Z</time>
      </trkpt>
      <trkpt lat="59.448765811549" lon="17.978933598366">
        <ele>23.8</ele>
        <time>2019-09-21T11:01:38Z</time>
      </trkpt>
      <trkpt lat="59.448753741613" lon="17.978945081569">
        <ele>23.8</ele>
        <time>2019-09-21T11:01:39Z</time>
      </trkpt>
      <trkpt lat="59.448710826285" lon="17.978983722128">
        <ele>23.4</ele>
        <time>2019-09-21T11:01:41Z</time>
      </trkpt>
      <trkpt lat="59.448666486034" lon="17.979049184767">
        <ele>23.2</ele>
        <time>2019-09-21T11:01:43Z</time>
      </trkpt>
      <trkpt lat="59.448456016525" lon="17.979301396138">
        <ele>24.2</ele>
        <time>2019-09-21T11:01:51Z</time>
      </trkpt>
      <trkpt lat="59.448278068788" lon="17.979490324164">
        <ele>24.8</ele>
        <time>2019-09-21T11:01:59Z</time>
      </trkpt>
      <trkpt lat="59.448081345595" lon="17.979585458729">
        <ele>23.6</ele>
        <time>2019-09-21T11:02:06Z</time>
      </trkpt>
      <trkpt lat="59.448028288168" lon="17.979641785097">
        <ele>23.2</ele>
        <time>2019-09-21T11:02:07Z</time>
      </trkpt>
      <trkpt lat="59.447916473622" lon="17.979689981022">
        <ele>22</ele>
        <time>2019-09-21T11:02:10Z</time>
      </trkpt>
      <trkpt lat="59.44773223946" lon="17.979758628783">
        <ele>21.6</ele>
        <time>2019-09-21T11:02:15Z</time>
      </trkpt>
      <trkpt lat="59.447566445478" lon="17.979782098103">
        <ele>21</ele>
        <time>2019-09-21T11:02:20Z</time>
      </trkpt>
      <trkpt lat="59.447380954031" lon="17.979781259913">
        <ele>20.8</ele>
        <time>2019-09-21T11:02:25Z</time>
      </trkpt>
      <trkpt lat="59.447206023778" lon="17.9797203235">
        <ele>22</ele>
        <time>2019-09-21T11:02:31Z</time>
      </trkpt>
      <trkpt lat="59.447131676325" lon="17.97971864712">
        <ele>23</ele>
        <time>2019-09-21T11:02:34Z</time>
      </trkpt>
      <trkpt lat="59.447108793738" lon="17.979720658776">
        <ele>23.4</ele>
        <time>2019-09-21T11:02:35Z</time>
      </trkpt>
      <trkpt lat="59.447029165688" lon="17.979703978795">
        <ele>24.2</ele>
        <time>2019-09-21T11:02:39Z</time>
      </trkpt>
      <trkpt lat="59.447009635861" lon="17.979705152261">
        <ele>24.4</ele>
        <time>2019-09-21T11:02:40Z</time>
      </trkpt>
      <trkpt lat="59.44687980023" lon="17.979795425324">
        <ele>25.6</ele>
        <time>2019-09-21T11:02:46Z</time>
      </trkpt>
      <trkpt lat="59.446857839652" lon="17.979823085594">
        <ele>25.4</ele>
        <time>2019-09-21T11:02:47Z</time>
      </trkpt>
      <trkpt lat="59.446826323708" lon="17.979863821628">
        <ele>25.6</ele>
        <time>2019-09-21T11:02:49Z</time>
      </trkpt>
      <trkpt lat="59.446740409233" lon="17.980014863466">
        <ele>25.4</ele>
        <time>2019-09-21T11:02:53Z</time>
      </trkpt>
      <trkpt lat="59.446687435625" lon="17.98009247986">
        <ele>25.6</ele>
        <time>2019-09-21T11:02:57Z</time>
      </trkpt>
      <trkpt lat="59.446654997672" lon="17.980145788744">
        <ele>25.8</ele>
        <time>2019-09-21T11:02:59Z</time>
      </trkpt>
      <trkpt lat="59.446599174218" lon="17.980252071236">
        <ele>25.8</ele>
        <time>2019-09-21T11:03:02Z</time>
      </trkpt>
      <trkpt lat="59.446538153986" lon="17.980410908241">
        <ele>25.4</ele>
        <time>2019-09-21T11:03:06Z</time>
      </trkpt>
      <trkpt lat="59.446469757682" lon="17.980581647544">
        <ele>25.4</ele>
        <time>2019-09-21T11:03:10Z</time>
      </trkpt>
      <trkpt lat="59.446418376635" lon="17.980669406037">
        <ele>25.8</ele>
        <time>2019-09-21T11:03:13Z</time>
      </trkpt>
      <trkpt lat="59.446307567917" lon="17.98082421973">
        <ele>27</ele>
        <time>2019-09-21T11:03:19Z</time>
      </trkpt>
      <trkpt lat="59.44617739701" lon="17.980874008216">
        <ele>28.2</ele>
        <time>2019-09-21T11:03:24Z</time>
      </trkpt>
      <trkpt lat="59.446128865809" lon="17.980877947709">
        <ele>28</ele>
        <time>2019-09-21T11:03:26Z</time>
      </trkpt>
      <trkpt lat="59.445945469837" lon="17.980828075404">
        <ele>28</ele>
        <time>2019-09-21T11:03:33Z</time>
      </trkpt>
      <trkpt lat="59.445814209283" lon="17.980821453703">
        <ele>28.8</ele>
        <time>2019-09-21T11:03:38Z</time>
      </trkpt>
      <trkpt lat="59.445755619802" lon="17.980793625795">
        <ele>29.4</ele>
        <time>2019-09-21T11:03:41Z</time>
      </trkpt>
      <trkpt lat="59.44562754437" lon="17.980730426269">
        <ele>30.6</ele>
        <time>2019-09-21T11:03:46Z</time>
      </trkpt>
      <trkpt lat="59.44549259578" lon="17.980653983341">
        <ele>31.4</ele>
        <time>2019-09-21T11:03:51Z</time>
      </trkpt>
      <trkpt lat="59.44542554058" lon="17.980648451287">
        <ele>31.8</ele>
        <time>2019-09-21T11:03:53Z</time>
      </trkpt>
      <trkpt lat="59.445259243684" lon="17.980544599546">
        <ele>32.8</ele>
        <time>2019-09-21T11:03:59Z</time>
      </trkpt>
      <trkpt lat="59.445126055293" lon="17.980507216272">
        <ele>34</ele>
        <time>2019-09-21T11:04:04Z</time>
      </trkpt>
      <trkpt lat="59.444947101728" lon="17.980436640674">
        <ele>34.8</ele>
        <time>2019-09-21T11:04:10Z</time>
      </trkpt>
      <trkpt lat="59.444856158113" lon="17.980371429492">
        <ele>35</ele>
        <time>2019-09-21T11:04:13Z</time>
      </trkpt>
      <trkpt lat="59.444707044112" lon="17.980282581352">
        <ele>36.2</ele>
        <time>2019-09-21T11:04:19Z</time>
      </trkpt>
      <trkpt lat="59.444657507083" lon="17.980231870857">
        <ele>36.4</ele>
        <time>2019-09-21T11:04:21Z</time>
      </trkpt>
      <trkpt lat="59.444473440559" lon="17.980054174577">
        <ele>36</ele>
        <time>2019-09-21T11:04:29Z</time>
      </trkpt>
      <trkpt lat="59.444275208624" lon="17.980022742452">
        <ele>36.6</ele>
        <time>2019-09-21T11:04:37Z</time>
      </trkpt>
      <trkpt lat="59.444220893912" lon="17.980012935629">
        <ele>36.8</ele>
        <time>2019-09-21T11:04:39Z</time>
      </trkpt>
      <trkpt lat="59.444089884815" lon="17.9799801624">
        <ele>37.4</ele>
        <time>2019-09-21T11:04:44Z</time>
      </trkpt>
      <trkpt lat="59.443914032553" lon="17.979854601538">
        <ele>37.2</ele>
        <time>2019-09-21T11:04:52Z</time>
      </trkpt>
      <trkpt lat="59.443750250227" lon="17.979676569982">
        <ele>37</ele>
        <time>2019-09-21T11:04:59Z</time>
      </trkpt>
      <trkpt lat="59.443562830943" lon="17.979594511181">
        <ele>37.8</ele>
        <time>2019-09-21T11:05:07Z</time>
      </trkpt>
      <trkpt lat="59.443531063542" lon="17.979603060719">
        <ele>38.6</ele>
        <time>2019-09-21T11:05:09Z</time>
      </trkpt>
      <trkpt lat="59.443488567309" lon="17.979648658255">
        <ele>39.8</ele>
        <time>2019-09-21T11:05:12Z</time>
      </trkpt>
      <trkpt lat="59.4434541177" lon="17.979677659629">
        <ele>40.4</ele>
        <time>2019-09-21T11:05:14Z</time>
      </trkpt>
      <trkpt lat="59.443409442173" lon="17.979717892749">
        <ele>41.4</ele>
        <time>2019-09-21T11:05:16Z</time>
      </trkpt>
      <trkpt lat="59.443334843263" lon="17.979833395331">
        <ele>42.6</ele>
        <time>2019-09-21T11:05:20Z</time>
      </trkpt>
      <trkpt lat="59.443198637388" lon="17.980076051336">
        <ele>41.8</ele>
        <time>2019-09-21T11:05:27Z</time>
      </trkpt>
      <trkpt lat="59.443157230802" lon="17.980158780689">
        <ele>41.6</ele>
        <time>2019-09-21T11:05:29Z</time>
      </trkpt>
      <trkpt lat="59.443029742103" lon="17.980472096111">
        <ele>41</ele>
        <time>2019-09-21T11:05:36Z</time>
      </trkpt>
      <trkpt lat="59.442956987211" lon="17.980657755196">
        <ele>40.2</ele>
        <time>2019-09-21T11:05:40Z</time>
      </trkpt>
      <trkpt lat="59.442858918981" lon="17.980810305776">
        <ele>39</ele>
        <time>2019-09-21T11:05:46Z</time>
      </trkpt>
      <trkpt lat="59.442826229571" lon="17.980868224705">
        <ele>38.6</ele>
        <time>2019-09-21T11:05:48Z</time>
      </trkpt>
      <trkpt lat="59.442789516849" lon="17.980957324302">
        <ele>38</ele>
        <time>2019-09-21T11:05:51Z</time>
      </trkpt>
      <trkpt lat="59.442709721161" lon="17.981316404898">
        <ele>37.6</ele>
        <time>2019-09-21T11:05:57Z</time>
      </trkpt>
      <trkpt lat="59.442613161673" lon="17.981434505869">
        <ele>36.6</ele>
        <time>2019-09-21T11:06:02Z</time>
      </trkpt>
      <trkpt lat="59.442490031562" lon="17.981520839439">
        <ele>35.6</ele>
        <time>2019-09-21T11:06:07Z</time>
      </trkpt>
      <trkpt lat="59.442357597542" lon="17.981587391725">
        <ele>34.2</ele>
        <time>2019-09-21T11:06:13Z</time>
      </trkpt>
      <trkpt lat="59.442251650326" lon="17.981717897908">
        <ele>32.8</ele>
        <time>2019-09-21T11:06:17Z</time>
      </trkpt>
      <trkpt lat="59.442199431089" lon="17.981811523731">
        <ele>31.6</ele>
        <time>2019-09-21T11:06:19Z</time>
      </trkpt>
      <trkpt lat="59.442089125285" lon="17.98203456609">
        <ele>30.4</ele>
        <time>2019-09-21T11:06:22Z</time>
      </trkpt>
      <trkpt lat="59.441922828389" lon="17.98230111051">
        <ele>29.2</ele>
        <time>2019-09-21T11:06:27Z</time>
      </trkpt>
      <trkpt lat="59.441873626636" lon="17.982371350832">
        <ele>29.2</ele>
        <time>2019-09-21T11:06:30Z</time>
      </trkpt>
      <trkpt lat="59.441765751583" lon="17.982662621857">
        <ele>29.4</ele>
        <time>2019-09-21T11:06:37Z</time>
      </trkpt>
      <trkpt lat="59.441619655066" lon="17.982947438819">
        <ele>29.4</ele>
        <time>2019-09-21T11:06:44Z</time>
      </trkpt>
      <trkpt lat="59.441446736469" lon="17.983147263315">
        <ele>29</ele>
        <time>2019-09-21T11:06:51Z</time>
      </trkpt>
      <trkpt lat="59.441286725998" lon="17.983394361727">
        <ele>28</ele>
        <time>2019-09-21T11:06:58Z</time>
      </trkpt>
      <trkpt lat="59.441230651087" lon="17.983517659476">
        <ele>27.4</ele>
        <time>2019-09-21T11:07:01Z</time>
      </trkpt>
      <trkpt lat="59.441197039668" lon="17.983549343058">
        <ele>27.8</ele>
        <time>2019-09-21T11:07:03Z</time>
      </trkpt>
      <trkpt lat="59.441033173523" lon="17.983737684351">
        <ele>27.6</ele>
        <time>2019-09-21T11:07:13Z</time>
      </trkpt>
      <trkpt lat="59.440859752012" lon="17.983898281555">
        <ele>27.4</ele>
        <time>2019-09-21T11:07:21Z</time>
      </trkpt>
      <trkpt lat="59.440712482029" lon="17.984143871225">
        <ele>28.8</ele>
        <time>2019-09-21T11:07:27Z</time>
      </trkpt>
      <trkpt lat="59.44060343351" lon="17.984277897806">
        <ele>28.8</ele>
        <time>2019-09-21T11:07:31Z</time>
      </trkpt>
      <trkpt lat="59.440425234316" lon="17.984411086197">
        <ele>27.4</ele>
        <time>2019-09-21T11:07:39Z</time>
      </trkpt>
      <trkpt lat="59.440399166607" lon="17.984450648765">
        <ele>27</ele>
        <time>2019-09-21T11:07:40Z</time>
      </trkpt>
      <trkpt lat="59.440331273217" lon="17.984573527419">
        <ele>25.4</ele>
        <time>2019-09-21T11:07:43Z</time>
      </trkpt>
      <trkpt lat="59.440290453364" lon="17.984653155469">
        <ele>24.2</ele>
        <time>2019-09-21T11:07:46Z</time>
      </trkpt>
      <trkpt lat="59.440178722637" lon="17.984934954947">
        <ele>23.6</ele>
        <time>2019-09-21T11:07:50Z</time>
      </trkpt>
      <trkpt lat="59.4401516491" lon="17.984989688754">
        <ele>23.2</ele>
        <time>2019-09-21T11:07:51Z</time>
      </trkpt>
      <trkpt lat="59.440013012474" lon="17.985257825735">
        <ele>22.2</ele>
        <time>2019-09-21T11:07:57Z</time>
      </trkpt>
      <trkpt lat="59.439995494303" lon="17.985288754946">
        <ele>22</ele>
        <time>2019-09-21T11:07:58Z</time>
      </trkpt>
      <trkpt lat="59.439825509371" lon="17.985509115097">
        <ele>21.4</ele>
        <time>2019-09-21T11:08:07Z</time>
      </trkpt>
      <trkpt lat="59.439810589589" lon="17.985535098987">
        <ele>21</ele>
        <time>2019-09-21T11:08:08Z</time>
      </trkpt>
      <trkpt lat="59.43974764152" lon="17.985643979868">
        <ele>20.2</ele>
        <time>2019-09-21T11:08:11Z</time>
      </trkpt>
      <trkpt lat="59.439717215223" lon="17.985711621801">
        <ele>20</ele>
        <time>2019-09-21T11:08:12Z</time>
      </trkpt>
      <trkpt lat="59.439627696531" lon="17.985939022748">
        <ele>20.2</ele>
        <time>2019-09-21T11:08:16Z</time>
      </trkpt>
      <trkpt lat="59.439598946614" lon="17.986147396782">
        <ele>21</ele>
        <time>2019-09-21T11:08:20Z</time>
      </trkpt>
      <trkpt lat="59.439560976607" lon="17.986353591522">
        <ele>22</ele>
        <time>2019-09-21T11:08:24Z</time>
      </trkpt>
      <trkpt lat="59.439558294399" lon="17.986380832697">
        <ele>22.4</ele>
        <time>2019-09-21T11:08:25Z</time>
      </trkpt>
      <trkpt lat="59.439539183667" lon="17.986529276146">
        <ele>22.8</ele>
        <time>2019-09-21T11:08:27Z</time>
      </trkpt>
      <trkpt lat="59.439529544482" lon="17.986664057098">
        <ele>23.8</ele>
        <time>2019-09-21T11:08:30Z</time>
      </trkpt>
      <trkpt lat="59.439528203378" lon="17.986805459751">
        <ele>25.2</ele>
        <time>2019-09-21T11:08:33Z</time>
      </trkpt>
      <trkpt lat="59.439528622473" lon="17.987166132908">
        <ele>24.4</ele>
        <time>2019-09-21T11:08:39Z</time>
      </trkpt>
      <trkpt lat="59.439541865875" lon="17.987246599148">
        <ele>24</ele>
        <time>2019-09-21T11:08:41Z</time>
      </trkpt>
      <trkpt lat="59.439609843084" lon="17.987538289268">
        <ele>23</ele>
        <time>2019-09-21T11:08:49Z</time>
      </trkpt>
      <trkpt lat="59.439650579118" lon="17.987649852357">
        <ele>22</ele>
        <time>2019-09-21T11:08:52Z</time>
      </trkpt>
      <trkpt lat="59.439696009016" lon="17.988022679269">
        <ele>21.6</ele>
        <time>2019-09-21T11:08:58Z</time>
      </trkpt>
      <trkpt lat="59.439721741449" lon="17.988252678605">
        <ele>21</ele>
        <time>2019-09-21T11:09:01Z</time>
      </trkpt>
      <trkpt lat="59.439784354242" lon="17.988628774458">
        <ele>20</ele>
        <time>2019-09-21T11:09:07Z</time>
      </trkpt>
      <trkpt lat="59.439793071418" lon="17.988800687227">
        <ele>19.8</ele>
        <time>2019-09-21T11:09:09Z</time>
      </trkpt>
      <trkpt lat="59.439862389731" lon="17.989359089405">
        <ele>19.4</ele>
        <time>2019-09-21T11:09:19Z</time>
      </trkpt>
      <trkpt lat="59.439913435502" lon="17.989726048987">
        <ele>19.4</ele>
        <time>2019-09-21T11:09:26Z</time>
      </trkpt>
      <trkpt lat="59.439924583429" lon="17.990088649981">
        <ele>20</ele>
        <time>2019-09-21T11:09:33Z</time>
      </trkpt>
      <trkpt lat="59.439934893166" lon="17.990467763318">
        <ele>20.4</ele>
        <time>2019-09-21T11:09:41Z</time>
      </trkpt>
      <trkpt lat="59.439942604514" lon="17.990836147823">
        <ele>19.8</ele>
        <time>2019-09-21T11:09:49Z</time>
      </trkpt>
      <trkpt lat="59.439965319463" lon="17.991135800748">
        <ele>20.8</ele>
        <time>2019-09-21T11:09:56Z</time>
      </trkpt>
      <trkpt lat="59.439984933109" lon="17.991542322898">
        <ele>20.2</ele>
        <time>2019-09-21T11:10:04Z</time>
      </trkpt>
      <trkpt lat="59.439983592005" lon="17.991690263433">
        <ele>19.6</ele>
        <time>2019-09-21T11:10:06Z</time>
      </trkpt>
      <trkpt lat="59.439993650285" lon="17.992090080063">
        <ele>20</ele>
        <time>2019-09-21T11:10:13Z</time>
      </trkpt>
      <trkpt lat="59.440003708565" lon="17.992271883474">
        <ele>20.6</ele>
        <time>2019-09-21T11:10:17Z</time>
      </trkpt>
      <trkpt lat="59.440047294445" lon="17.992434157058">
        <ele>21.4</ele>
        <time>2019-09-21T11:10:23Z</time>
      </trkpt>
      <trkpt lat="59.440053161775" lon="17.992452681057">
        <ele>21.6</ele>
        <time>2019-09-21T11:10:24Z</time>
      </trkpt>
      <trkpt lat="59.440059532019" lon="17.992476066558">
        <ele>21.6</ele>
        <time>2019-09-21T11:10:25Z</time>
      </trkpt>
      <trkpt lat="59.44010219589" lon="17.992514790936">
        <ele>22</ele>
        <time>2019-09-21T11:10:28Z</time>
      </trkpt>
      <trkpt lat="59.440171262746" lon="17.992555862246">
        <ele>22.6</ele>
        <time>2019-09-21T11:10:31Z</time>
      </trkpt>
      <trkpt lat="59.440259859429" lon="17.992628700957">
        <ele>23.8</ele>
        <time>2019-09-21T11:10:35Z</time>
      </trkpt>
      <trkpt lat="59.440352311786" lon="17.992726182454">
        <ele>24.8</ele>
        <time>2019-09-21T11:10:39Z</time>
      </trkpt>
      <trkpt lat="59.440405788308" lon="17.992783095555">
        <ele>24.6</ele>
        <time>2019-09-21T11:10:42Z</time>
      </trkpt>
      <trkpt lat="59.440495223181" lon="17.992937071058">
        <ele>23.6</ele>
        <time>2019-09-21T11:10:48Z</time>
      </trkpt>
      <trkpt lat="59.44067803242" lon="17.993073360752">
        <ele>23.8</ele>
        <time>2019-09-21T11:10:56Z</time>
      </trkpt>
      <trkpt lat="59.440767634931" lon="17.993133291337">
        <ele>24</ele>
        <time>2019-09-21T11:11:00Z</time>
      </trkpt>
      <trkpt lat="59.440792277717" lon="17.993172770086">
        <ele>24.2</ele>
        <time>2019-09-21T11:11:02Z</time>
      </trkpt>
      <trkpt lat="59.440828236068" lon="17.993210907731">
        <ele>24</ele>
        <time>2019-09-21T11:11:04Z</time>
      </trkpt>
      <trkpt lat="59.440872324862" lon="17.99325038648">
        <ele>23.8</ele>
        <time>2019-09-21T11:11:06Z</time>
      </trkpt>
      <trkpt lat="59.440969890178" lon="17.993368319813">
        <ele>22.6</ele>
        <time>2019-09-21T11:11:10Z</time>
      </trkpt>
      <trkpt lat="59.441058403042" lon="17.993462532369">
        <ele>21.2</ele>
        <time>2019-09-21T11:11:13Z</time>
      </trkpt>
      <trkpt lat="59.441171055778" lon="17.993538975297">
        <ele>19.8</ele>
        <time>2019-09-21T11:11:16Z</time>
      </trkpt>
      <trkpt lat="59.441280942487" lon="17.993676438457">
        <ele>18.8</ele>
        <time>2019-09-21T11:11:20Z</time>
      </trkpt>
      <trkpt lat="59.441442629338" lon="17.993769142271">
        <ele>17.8</ele>
        <time>2019-09-21T11:11:25Z</time>
      </trkpt>
      <trkpt lat="59.441497446964" lon="17.993776099248">
        <ele>18.2</ele>
        <time>2019-09-21T11:11:27Z</time>
      </trkpt>
      <trkpt lat="59.441588474398" lon="17.993794958523">
        <ele>18.8</ele>
        <time>2019-09-21T11:11:31Z</time>
      </trkpt>
      <trkpt lat="59.441782683021" lon="17.99386226518">
        <ele>19.6</ele>
        <time>2019-09-21T11:11:39Z</time>
      </trkpt>
      <trkpt lat="59.441804392142" lon="17.99387651441">
        <ele>19.8</ele>
        <time>2019-09-21T11:11:40Z</time>
      </trkpt>
      <trkpt lat="59.441903885295" lon="17.993986568757">
        <ele>21</ele>
        <time>2019-09-21T11:11:45Z</time>
      </trkpt>
      <trkpt lat="59.441967923011" lon="17.994062508771">
        <ele>21</ele>
        <time>2019-09-21T11:11:48Z</time>
      </trkpt>
      <trkpt lat="59.442100524669" lon="17.994114811827">
        <ele>20</ele>
        <time>2019-09-21T11:11:53Z</time>
      </trkpt>
      <trkpt lat="59.44230831197" lon="17.994120176243">
        <ele>18.8</ele>
        <time>2019-09-21T11:11:59Z</time>
      </trkpt>
      <trkpt lat="59.442363883967" lon="17.994103999176">
        <ele>17.8</ele>
        <time>2019-09-21T11:12:01Z</time>
      </trkpt>
      <trkpt lat="59.442458431799" lon="17.994073824336">
        <ele>16.8</ele>
        <time>2019-09-21T11:12:04Z</time>
      </trkpt>
      <trkpt lat="59.442538227487" lon="17.994027891524">
        <ele>16.2</ele>
        <time>2019-09-21T11:12:07Z</time>
      </trkpt>
      <trkpt lat="59.442693711732" lon="17.99385639785">
        <ele>16</ele>
        <time>2019-09-21T11:12:13Z</time>
      </trkpt>
      <trkpt lat="59.442875682781" lon="17.993735195576">
        <ele>17.2</ele>
        <time>2019-09-21T11:12:20Z</time>
      </trkpt>
      <trkpt lat="59.44291599972" lon="17.993695716827">
        <ele>17.8</ele>
        <time>2019-09-21T11:12:22Z</time>
      </trkpt>
      <trkpt lat="59.443098222226" lon="17.993609299438">
        <ele>17.4</ele>
        <time>2019-09-21T11:12:28Z</time>
      </trkpt>
      <trkpt lat="59.443204839994" lon="17.993593457647">
        <ele>16.8</ele>
        <time>2019-09-21T11:12:31Z</time>
      </trkpt>
      <trkpt lat="59.443307099174" lon="17.993575017467">
        <ele>15.6</ele>
        <time>2019-09-21T11:12:34Z</time>
      </trkpt>
      <trkpt lat="59.443372142718" lon="17.993534449071">
        <ele>14.6</ele>
        <time>2019-09-21T11:12:36Z</time>
      </trkpt>
      <trkpt lat="59.443458727745" lon="17.993476613961">
        <ele>13.2</ele>
        <time>2019-09-21T11:12:39Z</time>
      </trkpt>
      <trkpt lat="59.44356727335" lon="17.993336049498">
        <ele>12.2</ele>
        <time>2019-09-21T11:12:43Z</time>
      </trkpt>
      <trkpt lat="59.443702305759" lon="17.993077551702">
        <ele>12.2</ele>
        <time>2019-09-21T11:12:49Z</time>
      </trkpt>
      <trkpt lat="59.443828956268" lon="17.99282290958">
        <ele>13</ele>
        <time>2019-09-21T11:12:55Z</time>
      </trkpt>
      <trkpt lat="59.443861813316" lon="17.992747053385">
        <ele>13.2</ele>
        <time>2019-09-21T11:12:57Z</time>
      </trkpt>
      <trkpt lat="59.44395870808" lon="17.992480006051">
        <ele>14.4</ele>
        <time>2019-09-21T11:13:04Z</time>
      </trkpt>
      <trkpt lat="59.444010340584" lon="17.992283366677">
        <ele>15.6</ele>
        <time>2019-09-21T11:13:08Z</time>
      </trkpt>
      <trkpt lat="59.444077395784" lon="17.992023946872">
        <ele>17</ele>
        <time>2019-09-21T11:13:13Z</time>
      </trkpt>
      <trkpt lat="59.444152497608" lon="17.991873827043">
        <ele>18</ele>
        <time>2019-09-21T11:13:17Z</time>
      </trkpt>
      <trkpt lat="59.444292391519" lon="17.991637960377">
        <ele>19.2</ele>
        <time>2019-09-21T11:13:25Z</time>
      </trkpt>
      <trkpt lat="59.444336564132" lon="17.991612144125">
        <ele>20.4</ele>
        <time>2019-09-21T11:13:28Z</time>
      </trkpt>
      <trkpt lat="59.444389453921" lon="17.991586495511">
        <ele>21.4</ele>
        <time>2019-09-21T11:13:31Z</time>
      </trkpt>
      <trkpt lat="59.44457980687" lon="17.991498737018">
        <ele>20.8</ele>
        <time>2019-09-21T11:13:40Z</time>
      </trkpt>
      <trkpt lat="59.444671672494" lon="17.991471328205">
        <ele>21.4</ele>
        <time>2019-09-21T11:13:44Z</time>
      </trkpt>
      <trkpt lat="59.444773512579" lon="17.991464455047">
        <ele>22.4</ele>
        <time>2019-09-21T11:13:48Z</time>
      </trkpt>
      <trkpt lat="59.444879292157" lon="17.991484990702">
        <ele>23.4</ele>
        <time>2019-09-21T11:13:53Z</time>
      </trkpt>
      <trkpt lat="59.444981132242" lon="17.991496809181">
        <ele>24.6</ele>
        <time>2019-09-21T11:13:58Z</time>
      </trkpt>
      <trkpt lat="59.445050199098" lon="17.991491780041">
        <ele>26</ele>
        <time>2019-09-21T11:14:01Z</time>
      </trkpt>
      <trkpt lat="59.44509110277" lon="17.991495970991">
        <ele>27</ele>
        <time>2019-09-21T11:14:03Z</time>
      </trkpt>
      <trkpt lat="59.445113063348" lon="17.991512064239">
        <ele>27.4</ele>
        <time>2019-09-21T11:14:04Z</time>
      </trkpt>
      <trkpt lat="59.445150111346" lon="17.991571156634">
        <ele>28</ele>
        <time>2019-09-21T11:14:06Z</time>
      </trkpt>
      <trkpt lat="59.445244323902" lon="17.991818255046">
        <ele>29.2</ele>
        <time>2019-09-21T11:14:11Z</time>
      </trkpt>
      <trkpt lat="59.445343733236" lon="17.99202411451">
        <ele>29.4</ele>
        <time>2019-09-21T11:14:16Z</time>
      </trkpt>
      <trkpt lat="59.445471557211" lon="17.99212302093">
        <ele>30.4</ele>
        <time>2019-09-21T11:14:22Z</time>
      </trkpt>
      <trkpt lat="59.445660652875" lon="17.992225112472">
        <ele>31.2</ele>
        <time>2019-09-21T11:14:30Z</time>
      </trkpt>
      <trkpt lat="59.445867769624" lon="17.992175323986">
        <ele>30.4</ele>
        <time>2019-09-21T11:14:39Z</time>
      </trkpt>
      <trkpt lat="59.446059128401" lon="17.992079099774">
        <ele>31</ele>
        <time>2019-09-21T11:14:45Z</time>
      </trkpt>
      <trkpt lat="59.446261299829" lon="17.992024449786">
        <ele>31</ele>
        <time>2019-09-21T11:14:52Z</time>
      </trkpt>
      <trkpt lat="59.446445450172" lon="17.992076752842">
        <ele>30</ele>
        <time>2019-09-21T11:14:59Z</time>
      </trkpt>
      <trkpt lat="59.446555923614" lon="17.992062000698">
        <ele>29.2</ele>
        <time>2019-09-21T11:15:02Z</time>
      </trkpt>
      <trkpt lat="59.446747701486" lon="17.991984300485">
        <ele>28.2</ele>
        <time>2019-09-21T11:15:07Z</time>
      </trkpt>
      <trkpt lat="59.446927074146" lon="17.99186737298">
        <ele>27.2</ele>
        <time>2019-09-21T11:15:13Z</time>
      </trkpt>
      <trkpt lat="59.44709437687" lon="17.991726054146">
        <ele>27.6</ele>
        <time>2019-09-21T11:15:20Z</time>
      </trkpt>
      <trkpt lat="59.447270312951" lon="17.991556320671">
        <ele>28</ele>
        <time>2019-09-21T11:15:27Z</time>
      </trkpt>
      <trkpt lat="59.447359580186" lon="17.991493875516">
        <ele>27</ele>
        <time>2019-09-21T11:15:31Z</time>
      </trkpt>
      <trkpt lat="59.447461168814" lon="17.99140301572">
        <ele>25.8</ele>
        <time>2019-09-21T11:15:36Z</time>
      </trkpt>
      <trkpt lat="59.447616401602" lon="17.991196988618">
        <ele>25.8</ele>
        <time>2019-09-21T11:15:43Z</time>
      </trkpt>
      <trkpt lat="59.447725282483" lon="17.990977801933">
        <ele>27.2</ele>
        <time>2019-09-21T11:15:48Z</time>
      </trkpt>
      <trkpt lat="59.447751266373" lon="17.990829358484">
        <ele>27.4</ele>
        <time>2019-09-21T11:15:51Z</time>
      </trkpt>
      <trkpt lat="59.447846065662" lon="17.990489891534">
        <ele>27</ele>
        <time>2019-09-21T11:16:00Z</time>
      </trkpt>
      <trkpt lat="59.447981433347" lon="17.990177833397">
        <ele>26.8</ele>
        <time>2019-09-21T11:16:07Z</time>
      </trkpt>
      <trkpt lat="59.448078328111" lon="17.989880946499">
        <ele>27.2</ele>
        <time>2019-09-21T11:16:14Z</time>
      </trkpt>
      <trkpt lat="59.448092577341" lon="17.989771143609">
        <ele>26.8</ele>
        <time>2019-09-21T11:16:16Z</time>
      </trkpt>
      <trkpt lat="59.44812032143" lon="17.989666034583">
        <ele>26</ele>
        <time>2019-09-21T11:16:18Z</time>
      </trkpt>
      <trkpt lat="59.448124763837" lon="17.989513567822">
        <ele>25</ele>
        <time>2019-09-21T11:16:21Z</time>
      </trkpt>
      <trkpt lat="59.44816726007" lon="17.989368058038">
        <ele>24</ele>
        <time>2019-09-21T11:16:25Z</time>
      </trkpt>
      <trkpt lat="59.448211013588" lon="17.989276192414">
        <ele>22.8</ele>
        <time>2019-09-21T11:16:28Z</time>
      </trkpt>
      <trkpt lat="59.448329366016" lon="17.989095143374">
        <ele>21.6</ele>
        <time>2019-09-21T11:16:33Z</time>
      </trkpt>
      <trkpt lat="59.448451993213" lon="17.988869418807">
        <ele>20.4</ele>
        <time>2019-09-21T11:16:39Z</time>
      </trkpt>
      <trkpt lat="59.448585684518" lon="17.988584937121">
        <ele>19.8</ele>
        <time>2019-09-21T11:16:47Z</time>
      </trkpt>
      <trkpt lat="59.448779306408" lon="17.988407157022">
        <ele>21.2</ele>
        <time>2019-09-21T11:16:53Z</time>
      </trkpt>
      <trkpt lat="59.448960606905" lon="17.98830758005">
        <ele>21.2</ele>
        <time>2019-09-21T11:16:58Z</time>
      </trkpt>
      <trkpt lat="59.449140314841" lon="17.988234992796">
        <ele>20.4</ele>
        <time>2019-09-21T11:17:04Z</time>
      </trkpt>
      <trkpt lat="59.449310299773" lon="17.988197190427">
        <ele>19.4</ele>
        <time>2019-09-21T11:17:10Z</time>
      </trkpt>
      <trkpt lat="59.449503083473" lon="17.988076658705">
        <ele>19</ele>
        <time>2019-09-21T11:17:17Z</time>
      </trkpt>
      <trkpt lat="59.449637026235" lon="17.987835595261">
        <ele>19.2</ele>
        <time>2019-09-21T11:17:24Z</time>
      </trkpt>
      <trkpt lat="59.449752025903" lon="17.987532589576">
        <ele>19.2</ele>
        <time>2019-09-21T11:17:33Z</time>
      </trkpt>
      <trkpt lat="59.449875910385" lon="17.987234193936">
        <ele>18.8</ele>
        <time>2019-09-21T11:17:40Z</time>
      </trkpt>
      <trkpt lat="59.449937936445" lon="17.987161103768">
        <ele>18.2</ele>
        <time>2019-09-21T11:17:42Z</time>
      </trkpt>
      <trkpt lat="59.450024186196" lon="17.98705867695">
        <ele>17.2</ele>
        <time>2019-09-21T11:17:45Z</time>
      </trkpt>
      <trkpt lat="59.450091911948" lon="17.986970080267">
        <ele>16</ele>
        <time>2019-09-21T11:17:48Z</time>
      </trkpt>
      <trkpt lat="59.450264662907" lon="17.986771764513">
        <ele>15.6</ele>
        <time>2019-09-21T11:17:56Z</time>
      </trkpt>
      <trkpt lat="59.450449986716" lon="17.986611586404">
        <ele>16</ele>
        <time>2019-09-21T11:18:04Z</time>
      </trkpt>
      <trkpt lat="59.450590970274" lon="17.986465825163">
        <ele>15</ele>
        <time>2019-09-21T11:18:10Z</time>
      </trkpt>
      <trkpt lat="59.450740084275" lon="17.986216798914">
        <ele>14.4</ele>
        <time>2019-09-21T11:18:17Z</time>
      </trkpt>
      <trkpt lat="59.450777551368" lon="17.986078413745">
        <ele>13.8</ele>
        <time>2019-09-21T11:18:20Z</time>
      </trkpt>
      <trkpt lat="59.450861873282" lon="17.985722853547">
        <ele>14</ele>
        <time>2019-09-21T11:18:27Z</time>
      </trkpt>
      <trkpt lat="59.45097519657" lon="17.985389924479">
        <ele>14.2</ele>
        <time>2019-09-21T11:18:33Z</time>
      </trkpt>
      <trkpt lat="59.451071420782" lon="17.98512916357">
        <ele>14.8</ele>
        <time>2019-09-21T11:18:40Z</time>
      </trkpt>
      <trkpt lat="59.451178625283" lon="17.984831689939">
        <ele>15</ele>
        <time>2019-09-21T11:18:47Z</time>
      </trkpt>
      <trkpt lat="59.45127275402" lon="17.984519128888">
        <ele>14.6</ele>
        <time>2019-09-21T11:18:54Z</time>
      </trkpt>
      <trkpt lat="59.45131298714" lon="17.984134567316">
        <ele>14.2</ele>
        <time>2019-09-21T11:19:02Z</time>
      </trkpt>
      <trkpt lat="59.451388759516" lon="17.9837939269">
        <ele>14.8</ele>
        <time>2019-09-21T11:19:08Z</time>
      </trkpt>
      <trkpt lat="59.45148062514" lon="17.983463093307">
        <ele>14.8</ele>
        <time>2019-09-21T11:19:14Z</time>
      </trkpt>
      <trkpt lat="59.45151331455" lon="17.983378017022">
        <ele>14.6</ele>
        <time>2019-09-21T11:19:17Z</time>
      </trkpt>
      <trkpt lat="59.451559163543" lon="17.983305345949">
        <ele>14.4</ele>
        <time>2019-09-21T11:19:20Z</time>
      </trkpt>
      <trkpt lat="59.451616914834" lon="17.983241308233">
        <ele>14.8</ele>
        <time>2019-09-21T11:19:23Z</time>
      </trkpt>
      <trkpt lat="59.451691932839" lon="17.983167212237">
        <ele>14.6</ele>
        <time>2019-09-21T11:19:27Z</time>
      </trkpt>
      <trkpt lat="59.451866443997" lon="17.983011811811">
        <ele>14.2</ele>
        <time>2019-09-21T11:19:36Z</time>
      </trkpt>
      <trkpt lat="59.452006924641" lon="17.982930172105">
        <ele>13.8</ele>
        <time>2019-09-21T11:19:42Z</time>
      </trkpt>
      <trkpt lat="59.452156625375" lon="17.982765886865">
        <ele>14.8</ele>
        <time>2019-09-21T11:19:50Z</time>
      </trkpt>
      <trkpt lat="59.452164923456" lon="17.98274199845">
        <ele>14.8</ele>
        <time>2019-09-21T11:19:51Z</time>
      </trkpt>
      <trkpt lat="59.452258381641" lon="17.982502862843">
        <ele>15.8</ele>
        <time>2019-09-21T11:19:59Z</time>
      </trkpt>
      <trkpt lat="59.452360473183" lon="17.982162892979">
        <ele>16.4</ele>
        <time>2019-09-21T11:20:07Z</time>
      </trkpt>
      <trkpt lat="59.452365418504" lon="17.98202450781">
        <ele>16.6</ele>
        <time>2019-09-21T11:20:10Z</time>
      </trkpt>
      <trkpt lat="59.452372040205" lon="17.981926355761">
        <ele>16.8</ele>
        <time>2019-09-21T11:20:12Z</time>
      </trkpt>
      <trkpt lat="59.452380338286" lon="17.981885200632">
        <ele>17.2</ele>
        <time>2019-09-21T11:20:13Z</time>
      </trkpt>
      <trkpt lat="59.452384277779" lon="17.981782354719">
        <ele>17.8</ele>
        <time>2019-09-21T11:20:15Z</time>
      </trkpt>
      <trkpt lat="59.452386037978" lon="17.98173617045">
        <ele>18.2</ele>
        <time>2019-09-21T11:20:16Z</time>
      </trkpt>
      <trkpt lat="59.452405064891" lon="17.981472392057">
        <ele>19.2</ele>
        <time>2019-09-21T11:20:21Z</time>
      </trkpt>
      <trkpt lat="59.452379583915" lon="17.98130031165">
        <ele>19.6</ele>
        <time>2019-09-21T11:20:24Z</time>
      </trkpt>
      <trkpt lat="59.452294675268" lon="17.980900243563">
        <ele>19.8</ele>
        <time>2019-09-21T11:20:31Z</time>
      </trkpt>
      <trkpt lat="59.452146734733" lon="17.980642667776">
        <ele>20.2</ele>
        <time>2019-09-21T11:20:39Z</time>
      </trkpt>
      <trkpt lat="59.45213022239" lon="17.98061634861">
        <ele>20.4</ele>
        <time>2019-09-21T11:20:40Z</time>
      </trkpt>
      <trkpt lat="59.452010025944" lon="17.98037997903">
        <ele>21.6</ele>
        <time>2019-09-21T11:20:47Z</time>
      </trkpt>
      <trkpt lat="59.45195420249" lon="17.980237654368">
        <ele>22.8</ele>
        <time>2019-09-21T11:20:51Z</time>
      </trkpt>
      <trkpt lat="59.451880357951" lon="17.980107734918">
        <ele>23.8</ele>
        <time>2019-09-21T11:20:55Z</time>
      </trkpt>
      <trkpt lat="59.45174214042" lon="17.979946718619">
        <ele>25</ele>
        <time>2019-09-21T11:21:01Z</time>
      </trkpt>
      <trkpt lat="59.45170777463" lon="17.979892906821">
        <ele>25.4</ele>
        <time>2019-09-21T11:21:03Z</time>
      </trkpt>
      <trkpt lat="59.451682712749" lon="17.979809842192">
        <ele>25.6</ele>
        <time>2019-09-21T11:21:05Z</time>
      </trkpt>
      <trkpt lat="59.451641725258" lon="17.979679168371">
        <ele>25.6</ele>
        <time>2019-09-21T11:21:08Z</time>
      </trkpt>
      <trkpt lat="59.451559415" lon="17.979320842146">
        <ele>25.8</ele>
        <time>2019-09-21T11:21:15Z</time>
      </trkpt>
      <trkpt lat="59.451542735019" lon="17.979271472755">
        <ele>26</ele>
        <time>2019-09-21T11:21:16Z</time>
      </trkpt>
      <trkpt lat="59.451522786097" lon="17.979098051244">
        <ele>26</ele>
        <time>2019-09-21T11:21:20Z</time>
      </trkpt>
      <trkpt lat="59.451514488016" lon="17.979000653566">
        <ele>26</ele>
        <time>2019-09-21T11:21:22Z</time>
      </trkpt>
      <trkpt lat="59.451554302041" lon="17.978966036319">
        <ele>26.4</ele>
        <time>2019-09-21T11:21:26Z</time>
      </trkpt>
      <trkpt lat="59.451691094649" lon="17.978952960555">
        <ele>27</ele>
        <time>2019-09-21T11:21:36Z</time>
      </trkpt>
      <trkpt lat="59.451809866172" lon="17.9789072792">
        <ele>28.2</ele>
        <time>2019-09-21T11:21:42Z</time>
      </trkpt>
      <trkpt lat="59.451878346295" lon="17.978852713031">
        <ele>29.4</ele>
        <time>2019-09-21T11:21:46Z</time>
      </trkpt>
      <trkpt lat="59.451973732317" lon="17.978818179603">
        <ele>30.4</ele>
        <time>2019-09-21T11:21:50Z</time>
      </trkpt>
      <trkpt lat="59.45219141026" lon="17.978788926772">
        <ele>31</ele>
        <time>2019-09-21T11:21:57Z</time>
      </trkpt>
      <trkpt lat="59.45239089948" lon="17.978717345346">
        <ele>30</ele>
        <time>2019-09-21T11:22:03Z</time>
      </trkpt>
      <trkpt lat="59.452535487255" lon="17.978664623195">
        <ele>29.4</ele>
        <time>2019-09-21T11:22:08Z</time>
      </trkpt>
      <trkpt lat="59.452721565435" lon="17.978591533027">
        <ele>29.4</ele>
        <time>2019-09-21T11:22:17Z</time>
      </trkpt>
      <trkpt lat="59.452883587562" lon="17.978389613056">
        <ele>30.2</ele>
        <time>2019-09-21T11:22:24Z</time>
      </trkpt>
      <trkpt lat="59.452922898673" lon="17.978328257548">
        <ele>30.4</ele>
        <time>2019-09-21T11:22:26Z</time>
      </trkpt>
      <trkpt lat="59.453044939137" lon="17.978105299008">
        <ele>31.6</ele>
        <time>2019-09-21T11:22:34Z</time>
      </trkpt>
      <trkpt lat="59.45312934487" lon="17.977968422581">
        <ele>32.8</ele>
        <time>2019-09-21T11:22:39Z</time>
      </trkpt>
      <trkpt lat="59.453276782491" lon="17.977682432153">
        <ele>33</ele>
        <time>2019-09-21T11:22:47Z</time>
      </trkpt>
      <trkpt lat="59.453462525395" lon="17.97755695511">
        <ele>32.8</ele>
        <time>2019-09-21T11:22:54Z</time>
      </trkpt>
      <trkpt lat="59.453644161168" lon="17.977496270154">
        <ele>32.8</ele>
        <time>2019-09-21T11:23:00Z</time>
      </trkpt>
      <trkpt lat="59.453816493032" lon="17.977370960749">
        <ele>32.4</ele>
        <time>2019-09-21T11:23:06Z</time>
      </trkpt>
      <trkpt lat="59.453897546005" lon="17.977266689913">
        <ele>31.6</ele>
        <time>2019-09-21T11:23:09Z</time>
      </trkpt>
      <trkpt lat="59.454016652804" lon="17.977121180129">
        <ele>30.4</ele>
        <time>2019-09-21T11:23:13Z</time>
      </trkpt>
      <trkpt lat="59.45411254174" lon="17.976976173259">
        <ele>29.2</ele>
        <time>2019-09-21T11:23:18Z</time>
      </trkpt>
      <trkpt lat="59.454140956381" lon="17.976884894368">
        <ele>28</ele>
        <time>2019-09-21T11:23:21Z</time>
      </trkpt>
      <trkpt lat="59.454194349084" lon="17.976716753454">
        <ele>27</ele>
        <time>2019-09-21T11:23:25Z</time>
      </trkpt>
      <trkpt lat="59.454323681801" lon="17.976418022538">
        <ele>26.8</ele>
        <time>2019-09-21T11:23:32Z</time>
      </trkpt>
      <trkpt lat="59.454434993433" lon="17.97632230124">
        <ele>26</ele>
        <time>2019-09-21T11:23:36Z</time>
      </trkpt>
      <trkpt lat="59.454596764103" lon="17.976150053195">
        <ele>25</ele>
        <time>2019-09-21T11:23:43Z</time>
      </trkpt>
      <trkpt lat="59.454614701369" lon="17.976120632726">
        <ele>24.8</ele>
        <time>2019-09-21T11:23:44Z</time>
      </trkpt>
      <trkpt lat="59.454676978886" lon="17.975941930618">
        <ele>23.6</ele>
        <time>2019-09-21T11:23:49Z</time>
      </trkpt>
      <trkpt lat="59.454746464837" lon="17.975754092239">
        <ele>22.4</ele>
        <time>2019-09-21T11:23:53Z</time>
      </trkpt>
      <trkpt lat="59.454797510608" lon="17.975619227468">
        <ele>21</ele>
        <time>2019-09-21T11:23:56Z</time>
      </trkpt>
      <trkpt lat="59.45483757609" lon="17.975518309392">
        <ele>19.8</ele>
        <time>2019-09-21T11:23:58Z</time>
      </trkpt>
      <trkpt lat="59.454881916341" lon="17.975399537869">
        <ele>18.4</ele>
        <time>2019-09-21T11:24:00Z</time>
      </trkpt>
      <trkpt lat="59.454929106438" lon="17.975291746635">
        <ele>17.4</ele>
        <time>2019-09-21T11:24:02Z</time>
      </trkpt>
      <trkpt lat="59.454973865784" lon="17.975146655946">
        <ele>16.4</ele>
        <time>2019-09-21T11:24:05Z</time>
      </trkpt>
      <trkpt lat="59.455076124964" lon="17.974852618894">
        <ele>15.2</ele>
        <time>2019-09-21T11:24:12Z</time>
      </trkpt>
      <trkpt lat="59.455141336146" lon="17.974543242965">
        <ele>14.2</ele>
        <time>2019-09-21T11:24:18Z</time>
      </trkpt>
      <trkpt lat="59.455216354151" lon="17.974176786297">
        <ele>14.2</ele>
        <time>2019-09-21T11:24:26Z</time>
      </trkpt>
      <trkpt lat="59.455277039107" lon="17.973875456992">
        <ele>14</ele>
        <time>2019-09-21T11:24:33Z</time>
      </trkpt>
      <trkpt lat="59.455313919467" lon="17.973488129393">
        <ele>14.4</ele>
        <time>2019-09-21T11:24:41Z</time>
      </trkpt>
      <trkpt lat="59.455385500893" lon="17.973123432924">
        <ele>14</ele>
        <time>2019-09-21T11:24:48Z</time>
      </trkpt>
      <trkpt lat="59.455427242755" lon="17.972888991181">
        <ele>13.8</ele>
        <time>2019-09-21T11:24:53Z</time>
      </trkpt>
      <trkpt lat="59.455382902504" lon="17.972544662729">
        <ele>13.6</ele>
        <time>2019-09-21T11:25:00Z</time>
      </trkpt>
      <trkpt lat="59.45534049009" lon="17.972158424777">
        <ele>13.8</ele>
        <time>2019-09-21T11:25:07Z</time>
      </trkpt>
      <trkpt lat="59.455289192862" lon="17.971853742712">
        <ele>14.6</ele>
        <time>2019-09-21T11:25:14Z</time>
      </trkpt>
      <trkpt lat="59.455133205703" lon="17.971742682537">
        <ele>15.4</ele>
        <time>2019-09-21T11:25:21Z</time>
      </trkpt>
      <trkpt lat="59.45503203617" lon="17.971686691445">
        <ele>16.4</ele>
        <time>2019-09-21T11:25:25Z</time>
      </trkpt>
      <trkpt lat="59.454930866637" lon="17.971575547451">
        <ele>17.8</ele>
        <time>2019-09-21T11:25:30Z</time>
      </trkpt>
      <trkpt lat="59.454872863889" lon="17.971453339349">
        <ele>18.8</ele>
        <time>2019-09-21T11:25:33Z</time>
      </trkpt>
      <trkpt lat="59.454796337142" lon="17.971331131247">
        <ele>20</ele>
        <time>2019-09-21T11:25:38Z</time>
      </trkpt>
      <trkpt lat="59.454755768746" lon="17.971301459321">
        <ele>21.2</ele>
        <time>2019-09-21T11:25:41Z</time>
      </trkpt>
      <trkpt lat="59.454718134015" lon="17.971277654725">
        <ele>22.4</ele>
        <time>2019-09-21T11:25:43Z</time>
      </trkpt>
      <trkpt lat="59.454650072987" lon="17.971202888177">
        <ele>23.6</ele>
        <time>2019-09-21T11:25:47Z</time>
      </trkpt>
      <trkpt lat="59.454635739938" lon="17.971137844633">
        <ele>24.2</ele>
        <time>2019-09-21T11:25:49Z</time>
      </trkpt>
      <trkpt lat="59.454612438256" lon="17.971084368111">
        <ele>24.6</ele>
        <time>2019-09-21T11:25:51Z</time>
      </trkpt>
      <trkpt lat="59.454537084975" lon="17.970991999573">
        <ele>25.8</ele>
        <time>2019-09-21T11:25:55Z</time>
      </trkpt>
      <trkpt lat="59.454470113594" lon="17.970916143378">
        <ele>27</ele>
        <time>2019-09-21T11:25:59Z</time>
      </trkpt>
      <trkpt lat="59.454400962919" lon="17.970851016015">
        <ele>28</ele>
        <time>2019-09-21T11:26:04Z</time>
      </trkpt>
      <trkpt lat="59.454347821673" lon="17.97077599801">
        <ele>29</ele>
        <time>2019-09-21T11:26:07Z</time>
      </trkpt>
      <trkpt lat="59.454341032334" lon="17.970762000237">
        <ele>29.4</ele>
        <time>2019-09-21T11:26:08Z</time>
      </trkpt>
      <trkpt lat="59.454315970453" lon="17.970667200948">
        <ele>30.6</ele>
        <time>2019-09-21T11:26:12Z</time>
      </trkpt>
      <trkpt lat="59.45429442897" lon="17.970533509643">
        <ele>31.6</ele>
        <time>2019-09-21T11:26:15Z</time>
      </trkpt>
      <trkpt lat="59.454254363488" lon="17.970277191141">
        <ele>32.8</ele>
        <time>2019-09-21T11:26:20Z</time>
      </trkpt>
      <trkpt lat="59.45424581395" lon="17.970116258661">
        <ele>34</ele>
        <time>2019-09-21T11:26:23Z</time>
      </trkpt>
      <trkpt lat="59.454228798693" lon="17.969916350346">
        <ele>35.2</ele>
        <time>2019-09-21T11:26:27Z</time>
      </trkpt>
      <trkpt lat="59.454231061806" lon="17.969757513341">
        <ele>36.6</ele>
        <time>2019-09-21T11:26:31Z</time>
      </trkpt>
      <trkpt lat="59.454218824232" lon="17.969644022415">
        <ele>37.6</ele>
        <time>2019-09-21T11:26:34Z</time>
      </trkpt>
      <trkpt lat="59.454212705445" lon="17.969577218672">
        <ele>38.8</ele>
        <time>2019-09-21T11:26:36Z</time>
      </trkpt>
      <trkpt lat="59.454119833993" lon="17.969434642553">
        <ele>39.8</ele>
        <time>2019-09-21T11:26:41Z</time>
      </trkpt>
      <trkpt lat="59.453756059533" lon="17.969153932722">
        <ele>39</ele>
        <time>2019-09-21T11:26:53Z</time>
      </trkpt>
      <trkpt lat="59.453727728711" lon="17.969136582189">
        <ele>38.6</ele>
        <time>2019-09-21T11:26:54Z</time>
      </trkpt>
      <trkpt lat="59.45364064077" lon="17.969091152291">
        <ele>37.4</ele>
        <time>2019-09-21T11:26:57Z</time>
      </trkpt>
      <trkpt lat="59.45355514539" lon="17.969018229761">
        <ele>36.2</ele>
        <time>2019-09-21T11:27:00Z</time>
      </trkpt>
      <trkpt lat="59.453430338899" lon="17.968931644734">
        <ele>34.8</ele>
        <time>2019-09-21T11:27:04Z</time>
      </trkpt>
      <trkpt lat="59.453365211536" lon="17.968895015831">
        <ele>33.4</ele>
        <time>2019-09-21T11:27:06Z</time>
      </trkpt>
      <trkpt lat="59.453253480809" lon="17.968880347506">
        <ele>32.2</ele>
        <time>2019-09-21T11:27:09Z</time>
      </trkpt>
      <trkpt lat="59.453195478061" lon="17.968869283398">
        <ele>31</ele>
        <time>2019-09-21T11:27:11Z</time>
      </trkpt>
      <trkpt lat="59.453103193342" lon="17.968841706947">
        <ele>29.8</ele>
        <time>2019-09-21T11:27:14Z</time>
      </trkpt>
      <trkpt lat="59.452921389931" lon="17.968837348359">
        <ele>28.8</ele>
        <time>2019-09-21T11:27:19Z</time>
      </trkpt>
      <trkpt lat="59.45288878434" lon="17.968849250657">
        <ele>28.8</ele>
        <time>2019-09-21T11:27:20Z</time>
      </trkpt>
      <trkpt lat="59.452775712509" lon="17.968892417442">
        <ele>27.8</ele>
        <time>2019-09-21T11:27:24Z</time>
      </trkpt>
      <trkpt lat="59.452654845511" lon="17.968928459612">
        <ele>26.8</ele>
        <time>2019-09-21T11:27:29Z</time>
      </trkpt>
      <trkpt lat="59.452486285502" lon="17.969009596404">
        <ele>25.6</ele>
        <time>2019-09-21T11:27:37Z</time>
      </trkpt>
      <trkpt lat="59.452313031629" lon="17.96913314561">
        <ele>25</ele>
        <time>2019-09-21T11:27:42Z</time>
      </trkpt>
      <trkpt lat="59.452272882328" lon="17.969164577735">
        <ele>24.6</ele>
        <time>2019-09-21T11:27:43Z</time>
      </trkpt>
      <trkpt lat="59.452086217415" lon="17.969249821658">
        <ele>23.2</ele>
        <time>2019-09-21T11:27:48Z</time>
      </trkpt>
      <trkpt lat="59.451884884177" lon="17.9693183856">
        <ele>22.4</ele>
        <time>2019-09-21T11:27:54Z</time>
      </trkpt>
      <trkpt lat="59.451704840965" lon="17.969424584273">
        <ele>22.6</ele>
        <time>2019-09-21T11:27:59Z</time>
      </trkpt>
      <trkpt lat="59.451499484415" lon="17.969487448523">
        <ele>22.6</ele>
        <time>2019-09-21T11:28:05Z</time>
      </trkpt>
      <trkpt lat="59.451359422866" lon="17.969528687471">
        <ele>22.2</ele>
        <time>2019-09-21T11:28:09Z</time>
      </trkpt>
      <trkpt lat="59.451156832343" lon="17.969545367452">
        <ele>21.2</ele>
        <time>2019-09-21T11:28:16Z</time>
      </trkpt>
    </trkseg>
  </trk>
</gpx>